sensor_id;sensor_type;location;lat;lon;timestamp;pressure;altitude;pressure_sealevel;temperature;humidity
53889;BME280;41337;51.400;-2.342;2023-08-24T00:04:58;101316.63;;;18.56;75.49
53889;BME280;41337;51.400;-2.342;2023-08-24T00:10:00;101327.25;;;18.30;77.21
53889;BME280;41337;51.400;-2.342;2023-08-24T00:15:02;101307.59;;;18.18;77.10
53889;BME280;41337;51.400;-2.342;2023-08-24T00:20:05;101302.88;;;18.20;77.25
53889;BME280;41337;51.400;-2.342;2023-08-24T00:25:09;101279.50;;;18.35;75.95
53889;BME280;41337;51.400;-2.342;2023-08-24T00:30:12;101266.19;;;18.29;76.02
53889;BME280;41337;51.400;-2.342;2023-08-24T00:35:19;101249.19;;;18.23;75.91
53889;BME280;41337;51.400;-2.342;2023-08-24T00:40:43;101219.47;;;18.13;76.88
53889;BME280;41337;51.400;-2.342;2023-08-24T00:45:45;101224.38;;;18.09;76.72
53889;BME280;41337;51.400;-2.342;2023-08-24T00:50:46;101199.19;;;17.92;77.12
53889;BME280;41337;51.400;-2.342;2023-08-24T00:55:49;101184.47;;;17.90;77.48
53889;BME280;41337;51.400;-2.342;2023-08-24T01:00:52;101199.22;;;17.99;76.80
53889;BME280;41337;51.400;-2.342;2023-08-24T01:05:54;101181.56;;;17.91;76.74
53889;BME280;41337;51.400;-2.342;2023-08-24T01:16:09;101171.75;;;17.65;77.13
53889;BME280;41337;51.400;-2.342;2023-08-24T01:21:14;101184.88;;;17.60;77.76
53889;BME280;41337;51.400;-2.342;2023-08-24T01:26:20;101170.13;;;17.64;77.75
53889;BME280;41337;51.400;-2.342;2023-08-24T01:31:21;101175.44;;;17.71;78.38
53889;BME280;41337;51.400;-2.342;2023-08-24T01:36:25;101178.31;;;17.76;77.74
53889;BME280;41337;51.400;-2.342;2023-08-24T01:41:35;101188.16;;;17.69;77.95
53889;BME280;41337;51.400;-2.342;2023-08-24T01:46:39;101182.00;;;17.75;78.25
53889;BME280;41337;51.400;-2.342;2023-08-24T01:52:07;101149.66;;;17.65;78.39
53889;BME280;41337;51.400;-2.342;2023-08-24T02:02:24;101148.00;;;17.77;77.78
53889;BME280;41337;51.400;-2.342;2023-08-24T02:07:25;101138.78;;;17.66;78.23
53889;BME280;41337;51.400;-2.342;2023-08-24T02:12:28;101135.72;;;17.56;79.18
53889;BME280;41337;51.400;-2.342;2023-08-24T02:17:29;101133.06;;;17.63;78.83
53889;BME280;41337;51.400;-2.342;2023-08-24T02:22:33;101149.25;;;17.68;78.47
53889;BME280;41337;51.400;-2.342;2023-08-24T02:27:34;101162.31;;;17.56;77.94
53889;BME280;41337;51.400;-2.342;2023-08-24T02:32:34;101187.66;;;17.46;78.88
53889;BME280;41337;51.400;-2.342;2023-08-24T02:37:37;101170.06;;;17.38;79.09
53889;BME280;41337;51.400;-2.342;2023-08-24T02:42:40;101155.09;;;17.17;80.00
53889;BME280;41337;51.400;-2.342;2023-08-24T02:47:41;101148.31;;;17.15;80.56
53889;BME280;41337;51.400;-2.342;2023-08-24T02:52:42;101126.03;;;17.16;80.43
53889;BME280;41337;51.400;-2.342;2023-08-24T02:57:45;101123.59;;;17.21;80.03
53889;BME280;41337;51.400;-2.342;2023-08-24T03:02:47;101131.16;;;17.24;79.40
53889;BME280;41337;51.400;-2.342;2023-08-24T03:07:49;101144.22;;;17.19;79.64
53889;BME280;41337;51.400;-2.342;2023-08-24T03:12:53;101131.13;;;17.04;80.08
53889;BME280;41337;51.400;-2.342;2023-08-24T03:17:56;101107.63;;;17.01;81.14
53889;BME280;41337;51.400;-2.342;2023-08-24T03:23:03;101115.97;;;16.92;80.30
53889;BME280;41337;51.400;-2.342;2023-08-24T03:28:10;101110.00;;;16.83;80.54
53889;BME280;41337;51.400;-2.342;2023-08-24T03:33:12;101104.47;;;16.71;81.73
53889;BME280;41337;51.400;-2.342;2023-08-24T03:38:15;101109.56;;;16.73;81.53
53889;BME280;41337;51.400;-2.342;2023-08-24T03:43:31;101105.69;;;16.75;80.79
53889;BME280;41337;51.400;-2.342;2023-08-24T03:48:32;101102.19;;;16.68;81.49
53889;BME280;41337;51.400;-2.342;2023-08-24T03:53:33;101092.16;;;16.64;81.65
53889;BME280;41337;51.400;-2.342;2023-08-24T03:58:36;101083.56;;;16.68;81.51
53889;BME280;41337;51.400;-2.342;2023-08-24T04:03:37;101086.69;;;16.78;81.55
53889;BME280;41337;51.400;-2.342;2023-08-24T04:08:38;101067.47;;;16.83;80.45
53889;BME280;41337;51.400;-2.342;2023-08-24T04:13:40;101080.75;;;16.76;81.63
53889;BME280;41337;51.400;-2.342;2023-08-24T04:28:54;101064.38;;;16.66;81.56
53889;BME280;41337;51.400;-2.342;2023-08-24T04:33:58;101029.94;;;16.52;82.20
53889;BME280;41337;51.400;-2.342;2023-08-24T04:39:00;101074.09;;;16.53;81.37
53889;BME280;41337;51.400;-2.342;2023-08-24T04:49:30;101091.56;;;16.27;83.06
53889;BME280;41337;51.400;-2.342;2023-08-24T04:54:32;101079.13;;;16.34;83.31
53889;BME280;41337;51.400;-2.342;2023-08-24T04:59:33;101103.31;;;16.46;82.22
53889;BME280;41337;51.400;-2.342;2023-08-24T05:04:34;101104.97;;;16.54;82.08
53889;BME280;41337;51.400;-2.342;2023-08-24T05:09:44;101083.38;;;16.22;85.95
53889;BME280;41337;51.400;-2.342;2023-08-24T05:14:50;101092.00;;;16.31;87.37
53889;BME280;41337;51.400;-2.342;2023-08-24T05:19:51;101059.75;;;16.40;85.68
53889;BME280;41337;51.400;-2.342;2023-08-24T05:24:53;101071.03;;;16.49;84.51
53889;BME280;41337;51.400;-2.342;2023-08-24T05:29:54;101062.22;;;16.42;83.89
53889;BME280;41337;51.400;-2.342;2023-08-24T05:34:55;101074.09;;;16.46;84.05
53889;BME280;41337;51.400;-2.342;2023-08-24T05:39:56;101088.41;;;16.52;83.07
53889;BME280;41337;51.400;-2.342;2023-08-24T05:44:58;101069.16;;;16.43;83.04
53889;BME280;41337;51.400;-2.342;2023-08-24T05:50:00;101056.47;;;16.38;84.34
53889;BME280;41337;51.400;-2.342;2023-08-24T05:55:03;101061.81;;;16.52;83.89
53889;BME280;41337;51.400;-2.342;2023-08-24T06:00:05;101071.47;;;16.59;84.21
53889;BME280;41337;51.400;-2.342;2023-08-24T06:05:10;101069.47;;;16.61;84.21
53889;BME280;41337;51.400;-2.342;2023-08-24T06:10:12;101061.50;;;16.68;84.04
53889;BME280;41337;51.400;-2.342;2023-08-24T06:15:13;101051.72;;;16.81;82.63
53889;BME280;41337;51.400;-2.342;2023-08-24T06:20:14;101041.50;;;16.85;83.53
53889;BME280;41337;51.400;-2.342;2023-08-24T06:25:15;101024.75;;;16.98;83.98
53889;BME280;41337;51.400;-2.342;2023-08-24T06:30:15;101021.28;;;17.17;81.90
53889;BME280;41337;51.400;-2.342;2023-08-24T06:35:16;101031.50;;;17.00;82.71
53889;BME280;41337;51.400;-2.342;2023-08-24T06:40:17;101000.41;;;16.94;83.37
53889;BME280;41337;51.400;-2.342;2023-08-24T06:45:19;100996.13;;;17.00;83.09
53889;BME280;41337;51.400;-2.342;2023-08-24T06:50:20;100990.19;;;17.11;83.53
53889;BME280;41337;51.400;-2.342;2023-08-24T06:55:21;100987.94;;;17.34;82.64
53889;BME280;41337;51.400;-2.342;2023-08-24T07:00:23;100988.53;;;17.23;82.26
53889;BME280;41337;51.400;-2.342;2023-08-24T07:05:23;100954.38;;;17.33;82.65
53889;BME280;41337;51.400;-2.342;2023-08-24T07:10:24;100931.81;;;17.55;82.88
53889;BME280;41337;51.400;-2.342;2023-08-24T07:15:26;100914.16;;;17.74;82.08
53889;BME280;41337;51.400;-2.342;2023-08-24T07:20:27;100874.72;;;17.96;81.81
53889;BME280;41337;51.400;-2.342;2023-08-24T07:25:28;100867.88;;;18.13;80.97
53889;BME280;41337;51.400;-2.342;2023-08-24T07:30:29;100890.56;;;18.22;81.22
53889;BME280;41337;51.400;-2.342;2023-08-24T07:40:33;100908.03;;;18.43;79.32
53889;BME280;41337;51.400;-2.342;2023-08-24T07:45:36;100890.59;;;18.53;78.10
53889;BME280;41337;51.400;-2.342;2023-08-24T07:50:37;100882.03;;;18.69;78.33
53889;BME280;41337;51.400;-2.342;2023-08-24T07:55:43;100874.66;;;18.90;75.33
53889;BME280;41337;51.400;-2.342;2023-08-24T08:00:44;100882.53;;;19.03;74.65
53889;BME280;41337;51.400;-2.342;2023-08-24T08:05:46;100911.44;;;19.06;74.26
53889;BME280;41337;51.400;-2.342;2023-08-24T08:10:47;100916.28;;;19.15;74.21
53889;BME280;41337;51.400;-2.342;2023-08-24T08:16:02;100927.63;;;19.29;72.93
53889;BME280;41337;51.400;-2.342;2023-08-24T08:21:16;100945.28;;;19.30;71.38
53889;BME280;41337;51.400;-2.342;2023-08-24T08:37:04;100932.56;;;19.50;70.17
53889;BME280;41337;51.400;-2.342;2023-08-24T08:42:11;100923.97;;;19.48;69.88
53889;BME280;41337;51.400;-2.342;2023-08-24T08:47:13;100922.19;;;19.60;67.14
53889;BME280;41337;51.400;-2.342;2023-08-24T08:52:18;100942.56;;;19.73;66.87
53889;BME280;41337;51.400;-2.342;2023-08-24T08:57:26;100956.28;;;19.95;67.14
53889;BME280;41337;51.400;-2.342;2023-08-24T09:02:29;100961.91;;;20.05;63.51
53889;BME280;41337;51.400;-2.342;2023-08-24T09:07:34;100953.22;;;20.10;65.06
53889;BME280;41337;51.400;-2.342;2023-08-24T09:12:36;100952.31;;;20.45;61.83
53889;BME280;41337;51.400;-2.342;2023-08-24T09:18:02;100951.72;;;20.73;61.50
53889;BME280;41337;51.400;-2.342;2023-08-24T09:23:04;100966.88;;;21.03;60.88
53889;BME280;41337;51.400;-2.342;2023-08-24T09:28:08;100968.06;;;21.41;57.42
53889;BME280;41337;51.400;-2.342;2023-08-24T09:33:10;100986.06;;;21.69;56.69
53889;BME280;41337;51.400;-2.342;2023-08-24T09:38:17;100984.44;;;22.20;54.59
53889;BME280;41337;51.400;-2.342;2023-08-24T09:43:19;100984.53;;;22.53;52.37
53889;BME280;41337;51.400;-2.342;2023-08-24T09:48:22;100993.78;;;22.74;51.70
53889;BME280;41337;51.400;-2.342;2023-08-24T09:53:34;101006.50;;;23.12;50.35
53889;BME280;41337;51.400;-2.342;2023-08-24T09:58:46;100999.59;;;22.99;51.43
53889;BME280;41337;51.400;-2.342;2023-08-24T10:03:57;100987.44;;;22.80;49.42
53889;BME280;41337;51.400;-2.342;2023-08-24T10:09:02;100996.72;;;22.72;49.35
53889;BME280;41337;51.400;-2.342;2023-08-24T10:14:19;100995.25;;;22.53;50.02
53889;BME280;41337;51.400;-2.342;2023-08-24T10:19:22;100983.00;;;22.57;49.05
53889;BME280;41337;51.400;-2.342;2023-08-24T10:24:24;100978.97;;;22.71;48.81
53889;BME280;41337;51.400;-2.342;2023-08-24T10:29:26;100992.25;;;23.11;47.64
53889;BME280;41337;51.400;-2.342;2023-08-24T11:06:56;100969.69;;;23.89;46.67
53889;BME280;41337;51.400;-2.342;2023-08-24T11:12:02;100974.09;;;24.17;46.21
53889;BME280;41337;51.400;-2.342;2023-08-24T11:17:22;100960.13;;;24.20;46.46
53889;BME280;41337;51.400;-2.342;2023-08-24T11:22:25;100934.25;;;24.41;44.96
53889;BME280;41337;51.400;-2.342;2023-08-24T11:27:29;100928.63;;;24.74;44.39
53889;BME280;41337;51.400;-2.342;2023-08-24T11:32:31;100913.00;;;25.08;44.68
53889;BME280;41337;51.400;-2.342;2023-08-24T11:37:32;100902.88;;;25.87;41.37
53889;BME280;41337;51.400;-2.342;2023-08-24T11:42:36;100892.94;;;26.03;41.15
53889;BME280;41337;51.400;-2.342;2023-08-24T11:47:38;100890.31;;;26.33;40.78
53889;BME280;41337;51.400;-2.342;2023-08-24T11:52:42;100897.56;;;26.78;39.52
53889;BME280;41337;51.400;-2.342;2023-08-24T11:57:43;100880.56;;;26.83;40.23
53889;BME280;41337;51.400;-2.342;2023-08-24T12:02:44;100877.84;;;26.83;39.84
53889;BME280;41337;51.400;-2.342;2023-08-24T12:07:52;100873.78;;;27.06;39.32
53889;BME280;41337;51.400;-2.342;2023-08-24T12:13:05;100871.81;;;27.32;39.00
53889;BME280;41337;51.400;-2.342;2023-08-24T12:18:10;100855.16;;;27.68;39.90
53889;BME280;41337;51.400;-2.342;2023-08-24T12:23:11;100851.69;;;28.12;38.71
53889;BME280;41337;51.400;-2.342;2023-08-24T12:28:14;100847.53;;;27.81;40.37
53889;BME280;41337;51.400;-2.342;2023-08-24T12:33:23;100843.69;;;27.92;39.99
53889;BME280;41337;51.400;-2.342;2023-08-24T12:38:26;100855.75;;;27.65;41.47
53889;BME280;41337;51.400;-2.342;2023-08-24T12:43:27;100853.72;;;27.27;42.32
53889;BME280;41337;51.400;-2.342;2023-08-24T12:48:30;100842.84;;;27.37;43.19
53889;BME280;41337;51.400;-2.342;2023-08-24T12:53:31;100814.72;;;27.48;42.97
53889;BME280;41337;51.400;-2.342;2023-08-24T12:58:31;100823.41;;;27.40;43.32
53889;BME280;41337;51.400;-2.342;2023-08-24T13:03:32;100820.56;;;27.11;43.47
53889;BME280;41337;51.400;-2.342;2023-08-24T13:08:34;100824.59;;;27.14;45.35
53889;BME280;41337;51.400;-2.342;2023-08-24T13:13:36;100808.41;;;27.04;47.57
53889;BME280;41337;51.400;-2.342;2023-08-24T13:18:38;100820.81;;;27.15;47.02
53889;BME280;41337;51.400;-2.342;2023-08-24T13:23:39;100811.56;;;27.26;46.21
53889;BME280;41337;51.400;-2.342;2023-08-24T13:28:41;100807.44;;;26.59;47.50
53889;BME280;41337;51.400;-2.342;2023-08-24T13:33:44;100795.00;;;25.98;48.72
53889;BME280;41337;51.400;-2.342;2023-08-24T13:38:45;100796.09;;;25.71;47.84
53889;BME280;41337;51.400;-2.342;2023-08-24T13:43:50;100783.63;;;25.50;47.66
53889;BME280;41337;51.400;-2.342;2023-08-24T13:48:54;100765.91;;;25.79;46.50
53889;BME280;41337;51.400;-2.342;2023-08-24T13:54:02;100774.53;;;26.42;42.98
53889;BME280;41337;51.400;-2.342;2023-08-24T14:04:08;100781.91;;;27.11;43.08
53889;BME280;41337;51.400;-2.342;2023-08-24T14:09:09;100768.41;;;27.11;43.20
53889;BME280;41337;51.400;-2.342;2023-08-24T14:14:38;100762.28;;;26.90;43.38
53889;BME280;41337;51.400;-2.342;2023-08-24T14:19:43;100769.53;;;26.95;42.30
53889;BME280;41337;51.400;-2.342;2023-08-24T14:25:07;100757.63;;;27.01;41.68
53889;BME280;41337;51.400;-2.342;2023-08-24T14:30:12;100768.41;;;27.11;41.38
53889;BME280;41337;51.400;-2.342;2023-08-24T14:35:13;100742.53;;;26.95;41.14
53889;BME280;41337;51.400;-2.342;2023-08-24T14:40:39;100736.00;;;27.11;40.29
53889;BME280;41337;51.400;-2.342;2023-08-24T14:45:39;100749.34;;;26.77;40.74
53889;BME280;41337;51.400;-2.342;2023-08-24T14:50:48;100753.75;;;26.32;42.90
53889;BME280;41337;51.400;-2.342;2023-08-24T14:55:49;100767.53;;;26.21;42.68
53889;BME280;41337;51.400;-2.342;2023-08-24T15:00:56;100771.81;;;25.81;43.53
53889;BME280;41337;51.400;-2.342;2023-08-24T15:06:02;100760.47;;;25.54;43.60
53889;BME280;41337;51.400;-2.342;2023-08-24T15:11:07;100746.09;;;25.23;44.04
53889;BME280;41337;51.400;-2.342;2023-08-24T15:16:33;100748.09;;;24.91;45.77
53889;BME280;41337;51.400;-2.342;2023-08-24T15:28:01;100732.84;;;24.54;47.26
53889;BME280;41337;51.400;-2.342;2023-08-24T15:33:02;100722.75;;;24.30;54.18
53889;BME280;41337;51.400;-2.342;2023-08-24T15:38:03;100737.00;;;23.98;55.55
53889;BME280;41337;51.400;-2.342;2023-08-24T15:43:24;100737.66;;;23.52;59.87
53889;BME280;41337;51.400;-2.342;2023-08-24T15:48:25;100761.44;;;23.16;59.83
53889;BME280;41337;51.400;-2.342;2023-08-24T15:53:44;100750.81;;;22.66;67.33
53889;BME280;41337;51.400;-2.342;2023-08-24T15:59:11;100742.75;;;21.95;68.15
53889;BME280;41337;51.400;-2.342;2023-08-24T16:04:18;100731.84;;;21.39;70.50
53889;BME280;41337;51.400;-2.342;2023-08-24T16:09:48;100746.66;;;20.90;73.36
53889;BME280;41337;51.400;-2.342;2023-08-24T16:14:55;100750.88;;;20.86;74.93
53889;BME280;41337;51.400;-2.342;2023-08-24T16:19:56;100737.75;;;20.73;74.38
53889;BME280;41337;51.400;-2.342;2023-08-24T16:24:57;100733.91;;;20.69;76.05
53889;BME280;41337;51.400;-2.342;2023-08-24T16:29:58;100753.53;;;20.86;75.48
53889;BME280;41337;51.400;-2.342;2023-08-24T16:34:59;100757.91;;;21.04;73.95
53889;BME280;41337;51.400;-2.342;2023-08-24T16:40:06;100748.69;;;21.23;74.36
53889;BME280;41337;51.400;-2.342;2023-08-24T16:45:07;100749.03;;;21.55;77.91
53889;BME280;41337;51.400;-2.342;2023-08-24T16:50:12;100750.94;;;22.38;72.18
53889;BME280;41337;51.400;-2.342;2023-08-24T17:00:42;100749.75;;;23.06;71.38
53889;BME280;41337;51.400;-2.342;2023-08-24T17:06:11;100748.69;;;23.29;72.11
53889;BME280;41337;51.400;-2.342;2023-08-24T17:11:24;100737.94;;;23.29;71.08
53889;BME280;41337;51.400;-2.342;2023-08-24T17:16:52;100752.00;;;23.62;64.77
53889;BME280;41337;51.400;-2.342;2023-08-24T17:21:54;100740.34;;;23.30;64.53
53889;BME280;41337;51.400;-2.342;2023-08-24T17:26:57;100750.19;;;23.19;65.58
53889;BME280;41337;51.400;-2.342;2023-08-24T17:32:02;100736.56;;;23.04;64.29
53889;BME280;41337;51.400;-2.342;2023-08-24T17:37:12;100734.81;;;22.71;65.02
53889;BME280;41337;51.400;-2.342;2023-08-24T17:42:14;100733.84;;;22.22;68.18
53889;BME280;41337;51.400;-2.342;2023-08-24T17:47:15;100727.47;;;21.78;67.15
53889;BME280;41337;51.400;-2.342;2023-08-24T17:52:16;100734.34;;;21.58;67.03
53889;BME280;41337;51.400;-2.342;2023-08-24T17:57:38;100738.66;;;21.59;67.87
53889;BME280;41337;51.400;-2.342;2023-08-24T18:02:40;100733.72;;;21.39;67.11
53889;BME280;41337;51.400;-2.342;2023-08-24T18:07:45;100734.16;;;21.19;67.84
53889;BME280;41337;51.400;-2.342;2023-08-24T18:12:47;100736.78;;;20.91;69.64
53889;BME280;41337;51.400;-2.342;2023-08-24T18:18:21;100738.81;;;20.61;67.47
53889;BME280;41337;51.400;-2.342;2023-08-24T18:23:25;100737.88;;;20.43;67.94
53889;BME280;41337;51.400;-2.342;2023-08-24T18:33:53;100748.66;;;20.25;68.75
53889;BME280;41337;51.400;-2.342;2023-08-24T18:44:04;100738.16;;;19.89;69.30
53889;BME280;41337;51.400;-2.342;2023-08-24T18:49:28;100735.78;;;19.69;70.55
53889;BME280;41337;51.400;-2.342;2023-08-24T18:54:49;100731.91;;;19.53;70.08
53889;BME280;41337;51.400;-2.342;2023-08-24T18:59:52;100736.59;;;19.40;69.70
53889;BME280;41337;51.400;-2.342;2023-08-24T19:04:55;100739.88;;;19.24;71.45
53889;BME280;41337;51.400;-2.342;2023-08-24T19:10:09;100747.03;;;19.11;72.05
53889;BME280;41337;51.400;-2.342;2023-08-24T19:15:12;100752.06;;;19.01;73.54
53889;BME280;41337;51.400;-2.342;2023-08-24T19:20:29;100755.53;;;19.02;71.38
53889;BME280;41337;51.400;-2.342;2023-08-24T19:25:35;100754.75;;;18.83;70.49
53889;BME280;41337;51.400;-2.342;2023-08-24T19:30:43;100768.97;;;18.77;71.60
53889;BME280;41337;51.400;-2.342;2023-08-24T19:36:07;100768.59;;;18.74;71.22
53889;BME280;41337;51.400;-2.342;2023-08-24T19:41:20;100777.78;;;18.78;74.64
53889;BME280;41337;51.400;-2.342;2023-08-24T19:46:27;100782.72;;;18.74;73.43
53889;BME280;41337;51.400;-2.342;2023-08-24T19:51:29;100795.91;;;18.69;74.47
53889;BME280;41337;51.400;-2.342;2023-08-24T19:56:34;100804.03;;;18.56;73.34
53889;BME280;41337;51.400;-2.342;2023-08-24T20:01:50;100810.47;;;18.42;74.31
53889;BME280;41337;51.400;-2.342;2023-08-24T20:07:02;100810.38;;;18.30;69.67
53889;BME280;41337;51.400;-2.342;2023-08-24T20:12:26;100825.84;;;18.15;67.67
53889;BME280;41337;51.400;-2.342;2023-08-24T20:17:29;100815.75;;;17.99;69.24
53889;BME280;41337;51.400;-2.342;2023-08-24T20:22:30;100833.63;;;17.85;69.60
53889;BME280;41337;51.400;-2.342;2023-08-24T20:27:31;100825.09;;;17.70;69.75
53889;BME280;41337;51.400;-2.342;2023-08-24T20:32:40;100829.47;;;17.58;69.76
53889;BME280;41337;51.400;-2.342;2023-08-24T20:38:08;100838.09;;;17.47;68.91
53889;BME280;41337;51.400;-2.342;2023-08-24T20:43:13;100835.47;;;17.33;70.41
53889;BME280;41337;51.400;-2.342;2023-08-24T20:48:53;100844.31;;;17.21;69.82
53889;BME280;41337;51.400;-2.342;2023-08-24T20:54:01;100839.66;;;17.03;72.13
53889;BME280;41337;51.400;-2.342;2023-08-24T20:59:11;100843.16;;;16.90;70.85
53889;BME280;41337;51.400;-2.342;2023-08-24T21:04:15;100855.66;;;16.83;69.97
53889;BME280;41337;51.400;-2.342;2023-08-24T21:09:18;100851.38;;;16.69;71.66
53889;BME280;41337;51.400;-2.342;2023-08-24T21:14:34;100858.94;;;16.66;69.81
53889;BME280;41337;51.400;-2.342;2023-08-24T21:20:10;100850.09;;;16.52;71.24
53889;BME280;41337;51.400;-2.342;2023-08-24T21:25:15;100872.38;;;16.44;72.04
53889;BME280;41337;51.400;-2.342;2023-08-24T21:30:40;100875.03;;;16.31;72.68
53889;BME280;41337;51.400;-2.342;2023-08-24T21:40:49;100863.34;;;16.13;71.97
53889;BME280;41337;51.400;-2.342;2023-08-24T21:45:59;100870.03;;;15.95;72.08
53889;BME280;41337;51.400;-2.342;2023-08-24T21:51:09;100868.41;;;15.81;71.68
53889;BME280;41337;51.400;-2.342;2023-08-24T21:56:10;100872.63;;;15.69;72.22
53889;BME280;41337;51.400;-2.342;2023-08-24T22:07:17;100879.22;;;15.39;73.50
53889;BME280;41337;51.400;-2.342;2023-08-24T22:12:22;100885.19;;;15.20;73.69
53889;BME280;41337;51.400;-2.342;2023-08-24T22:17:29;100884.50;;;15.04;73.20
53889;BME280;41337;51.400;-2.342;2023-08-24T22:22:31;100870.78;;;14.94;73.79
53889;BME280;41337;51.400;-2.342;2023-08-24T22:27:41;100879.00;;;14.78;73.44
53889;BME280;41337;51.400;-2.342;2023-08-24T22:33:01;100869.97;;;14.66;74.24
53889;BME280;41337;51.400;-2.342;2023-08-24T22:38:05;100872.50;;;14.53;74.03
53889;BME280;41337;51.400;-2.342;2023-08-24T22:43:08;100873.13;;;14.34;73.47
53889;BME280;41337;51.400;-2.342;2023-08-24T22:48:09;100872.44;;;14.25;73.99
53889;BME280;41337;51.400;-2.342;2023-08-24T22:53:11;100871.75;;;14.16;73.04
53889;BME280;41337;51.400;-2.342;2023-08-24T22:58:13;100873.34;;;14.17;74.25
53889;BME280;41337;51.400;-2.342;2023-08-24T23:08:25;100882.78;;;13.84;72.12
53889;BME280;41337;51.400;-2.342;2023-08-24T23:13:26;100875.06;;;13.68;72.47
53889;BME280;41337;51.400;-2.342;2023-08-24T23:18:39;100879.00;;;13.57;73.70
53889;BME280;41337;51.400;-2.342;2023-08-24T23:24:07;100874.63;;;13.50;72.79
53889;BME280;41337;51.400;-2.342;2023-08-24T23:29:12;100870.28;;;13.27;73.65
53889;BME280;41337;51.400;-2.342;2023-08-24T23:34:35;100861.41;;;13.06;73.55
53889;BME280;41337;51.400;-2.342;2023-08-24T23:40:04;100850.66;;;12.93;74.56
53889;BME280;41337;51.400;-2.342;2023-08-24T23:45:30;100850.91;;;12.83;74.56
53889;BME280;41337;51.400;-2.342;2023-08-24T23:51:18;100858.88;;;12.60;74.56
53889;BME280;41337;51.400;-2.342;2023-08-24T23:56:19;100868.75;;;12.44;74.76
